Kinston, Alabama
Current Conditions -  °F | °C
As of 11:58 PM on Saturday 20 Dec 2014 (Local Time) from K0J4 Reporting Station
Overcast Overcast  
Wind Chill: 52°   Ceiling: 800
Heat Index: 52°   Visibility: 9mi
Dew Point: 49°   Wind: 7mph
Humidity: 89%   Direction: 40°NE
Pressure: 30.14"   Gusts: NA
Location:  31.22°N, 86.17°W
Report Text: K0J4 210558Z AUTO 04006KT 9SM BKN008 OVC032 11/09 A3014 RMK AO2 SLP203 T01110094 10117 20111 58009 $
Loading
Personal Weather Stations






























Interactive Weather Map New forecast layout! Learn more

10-Day Weather Forecast

Advertisements
Track Severe Weather on mobile